createdAt,value
2023-05-22T00:00:17.421Z,101195.81
2023-05-22T00:02:49.240Z,101188.75
2023-05-22T00:05:20.860Z,101192.53
2023-05-22T00:07:52.812Z,101195.50
2023-05-22T00:10:24.349Z,101193.06
2023-05-22T00:12:56.137Z,101185.50
2023-05-22T00:15:27.654Z,101184.41
2023-05-22T00:17:59.491Z,101178.72
2023-05-22T00:20:30.992Z,101169.00
2023-05-22T00:23:03.045Z,101172.50
2023-05-22T00:25:34.858Z,101163.84
2023-05-22T00:28:06.679Z,101162.75
2023-05-22T00:30:38.593Z,101169.22
2023-05-22T00:33:10.333Z,101160.31
2023-05-22T00:35:42.153Z,101155.16
2023-05-22T00:38:13.658Z,101157.88
2023-05-22T00:40:45.493Z,101152.41
2023-05-22T00:43:16.989Z,101150.28
2023-05-22T00:45:48.913Z,101149.72
2023-05-22T00:48:20.407Z,101149.72
2023-05-22T00:50:52.264Z,101145.38
2023-05-22T00:53:23.784Z,101149.16
2023-05-22T00:55:55.740Z,101140.50
2023-05-22T00:58:27.615Z,101144.84
2023-05-22T01:00:59.399Z,101145.91
2023-05-22T01:03:31.017Z,101140.75
2023-05-22T01:06:02.570Z,101146.44
2023-05-22T01:08:34.497Z,101133.19
2023-05-22T01:11:05.995Z,101134.53
2023-05-22T01:13:37.841Z,101131.81
2023-05-22T01:16:09.363Z,101140.47
2023-05-22T01:18:41.038Z,101142.63
2023-05-22T01:21:12.538Z,101146.34
2023-05-22T01:23:44.390Z,101150.38
2023-05-22T01:26:15.885Z,101143.06
2023-05-22T01:28:47.702Z,101148.72
2023-05-22T01:31:19.555Z,101146.53
2023-05-22T01:33:51.520Z,101142.19
2023-05-22T01:36:23.558Z,101146.16
2023-05-22T01:38:55.102Z,101146.16
2023-05-22T01:41:26.871Z,101146.13
2023-05-22T01:43:58.373Z,101143.97
2023-05-22T01:46:29.919Z,101145.56
2023-05-22T01:49:01.438Z,101143.13
2023-05-22T01:51:33.278Z,101142.31
2023-05-22T01:54:04.845Z,101145.50
2023-05-22T01:56:36.342Z,101144.69
2023-05-22T01:59:07.841Z,101147.88
2023-05-22T02:01:39.390Z,101141.94
2023-05-22T02:04:11.227Z,101147.31
2023-05-22T02:06:42.997Z,101149.69
2023-05-22T02:09:14.528Z,101142.66
2023-05-22T02:11:46.012Z,101149.66
2023-05-22T02:14:17.797Z,101141.50
2023-05-22T02:16:49.331Z,101147.16
2023-05-22T02:19:21.139Z,101143.63
2023-05-22T02:21:52.661Z,101153.00
2023-05-22T02:24:24.335Z,101148.31
2023-05-22T02:26:55.810Z,101147.16
2023-05-22T02:29:27.485Z,101151.41
2023-05-22T02:31:58.973Z,101149.50
2023-05-22T02:34:30.835Z,100978.50
2023-05-22T02:37:02.327Z,101145.34
2023-05-22T02:39:33.838Z,101140.44
2023-05-22T02:42:05.647Z,101136.38
2023-05-22T02:44:37.137Z,101139.84
2023-05-22T02:47:08.979Z,101132.31
2023-05-22T02:49:40.464Z,101134.44
2023-05-22T02:52:12.339Z,101129.06
2023-05-22T02:54:43.815Z,101125.78
2023-05-22T02:57:15.349Z,101120.41
2023-05-22T02:59:46.847Z,101119.28
2023-05-22T03:02:18.349Z,101112.47
2023-05-22T03:04:49.883Z,101111.66
2023-05-22T03:07:21.425Z,101110.59
2023-05-22T03:09:52.916Z,101110.84
2023-05-22T03:12:24.415Z,101113.81
2023-05-22T03:14:56.363Z,101106.78
2023-05-22T03:17:27.894Z,101101.72
2023-05-22T03:19:59.443Z,101101.66
2023-05-22T03:22:30.943Z,101096.22
2023-05-22T03:25:02.439Z,101099.16
2023-05-22T03:27:33.931Z,101095.91
2023-05-22T03:30:05.755Z,101092.88
2023-05-22T03:32:37.331Z,101088.88
2023-05-22T03:35:09.292Z,101092.16
2023-05-22T03:37:40.819Z,101090.03
2023-05-22T03:40:12.359Z,101090.03
2023-05-22T03:42:43.834Z,101090.31
2023-05-22T03:45:15.334Z,101091.75
2023-05-22T03:47:47.128Z,101081.06
2023-05-22T03:50:18.626Z,101079.16
2023-05-22T03:52:50.449Z,101077.38
2023-05-22T03:55:21.956Z,101082.53
2023-05-22T03:57:53.700Z,101073.72
2023-05-22T04:00:26.378Z,101079.09
2023-05-22T04:02:58.956Z,101083.97
2023-05-22T04:05:30.738Z,101073.84
2023-05-22T04:08:02.474Z,101067.22
2023-05-22T04:10:33.965Z,101071.81
2023-05-22T04:13:05.796Z,101064.34
2023-05-22T04:15:37.314Z,101065.22
2023-05-22T04:18:09.180Z,101060.97
2023-05-22T04:20:40.981Z,101059.66
2023-05-22T04:23:12.689Z,101048.63
2023-05-22T04:25:44.520Z,101046.34
2023-05-22T04:28:16.009Z,101051.47
2023-05-22T04:30:48.023Z,101062.56
2023-05-22T04:33:19.563Z,101045.56
2023-05-22T04:35:51.377Z,101058.50
2023-05-22T04:38:22.858Z,101055.00
2023-05-22T04:40:54.553Z,101053.91
2023-05-22T04:43:26.039Z,101054.25
2023-05-22T04:45:57.761Z,101046.69
2023-05-22T04:48:29.587Z,101051.31
2023-05-22T04:51:01.387Z,101044.28
2023-05-22T04:53:33.187Z,101047.56
2023-05-22T04:56:04.674Z,101043.22
2023-05-22T04:58:36.183Z,101035.38
2023-05-22T05:01:07.672Z,101045.94
2023-05-22T05:03:39.271Z,101051.03
2023-05-22T05:06:10.786Z,101050.78
2023-05-22T05:08:42.340Z,101047.25
2023-05-22T05:11:13.964Z,101040.25
2023-05-22T05:13:46.476Z,101049.19
2023-05-22T05:16:18.055Z,101038.38
2023-05-22T05:18:49.978Z,101041.88
2023-05-22T05:21:21.827Z,101038.09
2023-05-22T05:23:53.678Z,101050.53
2023-05-22T05:26:25.190Z,101054.31
2023-05-22T05:28:56.800Z,101048.66
2023-05-22T05:31:28.758Z,101054.59
2023-05-22T05:34:00.251Z,101055.94
2023-05-22T05:36:32.077Z,101065.44
2023-05-22T05:39:03.569Z,101058.13
2023-05-22T05:41:35.094Z,101074.59
2023-05-22T05:44:06.625Z,101069.47
2023-05-22T05:46:38.146Z,101071.38
2023-05-22T05:49:09.728Z,101061.06
2023-05-22T05:51:41.227Z,101068.94
2023-05-22T05:54:13.250Z,101062.13
2023-05-22T05:56:44.815Z,101067.25
2023-05-22T05:59:16.613Z,101064.78
2023-05-22T06:01:48.126Z,101034.66
2023-05-22T06:04:19.650Z,101021.13
2023-05-22T06:06:51.152Z,101018.66
2023-05-22T06:09:22.996Z,101023.38
2023-05-22T06:11:54.481Z,101030.69
2023-05-22T06:14:26.281Z,101039.97
2023-05-22T06:16:57.916Z,101035.06
2023-05-22T06:19:29.965Z,101030.19
2023-05-22T06:22:01.505Z,101019.59
2023-05-22T06:24:33.505Z,101023.94
2023-05-22T06:27:05.022Z,101012.56
2023-05-22T06:29:36.539Z,101004.75
2023-05-22T06:32:08.417Z,100998.44
2023-05-22T06:34:39.991Z,101003.53
2023-05-22T06:37:11.863Z,100999.56
2023-05-22T06:39:43.368Z,100987.28
2023-05-22T06:42:15.239Z,100996.91
2023-05-22T06:44:46.742Z,101004.91
2023-05-22T06:47:18.399Z,101016.81
2023-05-22T06:49:49.887Z,100999.84
2023-05-22T06:52:21.697Z,101002.44
2023-05-22T06:54:53.200Z,101000.00
2023-05-22T06:57:24.707Z,100980.06
2023-05-22T06:59:56.397Z,100961.53
2023-05-22T07:02:27.951Z,100963.59
2023-05-22T07:04:59.528Z,100973.47
2023-05-22T07:07:31.028Z,100973.38
2023-05-22T07:10:02.860Z,100981.31
2023-05-22T07:12:34.381Z,100977.44
2023-05-22T07:15:05.904Z,100976.41
2023-05-22T07:17:37.471Z,100972.25
2023-05-22T07:20:09.050Z,100985.97
2023-05-22T07:22:40.529Z,100973.66
2023-05-22T07:25:12.061Z,100956.72
2023-05-22T07:27:43.556Z,100973.28
2023-05-22T07:30:15.056Z,100947.84
2023-05-22T07:32:46.603Z,100949.69
2023-05-22T07:35:18.127Z,100940.06
2023-05-22T07:37:49.668Z,100925.22
2023-05-22T07:40:21.156Z,100937.47
2023-05-22T07:42:53.045Z,100930.16
2023-05-22T07:45:24.528Z,100916.31
2023-05-22T07:47:56.501Z,100922.28
2023-05-22T07:50:28.031Z,100900.47
2023-05-22T07:52:59.541Z,100906.06
2023-05-22T07:55:31.052Z,100895.31
2023-05-22T07:58:02.581Z,100895.97
2023-05-22T08:00:34.110Z,100890.56
2023-05-22T08:03:05.992Z,100890.88
2023-05-22T08:05:37.672Z,100887.22
2023-05-22T08:08:09.245Z,100880.81
2023-05-22T08:11:01.981Z,100876.25
2023-05-22T08:13:32.308Z,100890.41
2023-05-22T08:16:04.413Z,100876.13
2023-05-22T08:18:35.894Z,100858.84
2023-05-22T08:21:07.820Z,100857.84
2023-05-22T08:23:39.367Z,100835.72
2023-05-22T08:26:11.148Z,100829.78
2023-05-22T08:28:42.937Z,100827.84
2023-05-22T08:31:14.496Z,100806.28
2023-05-22T08:33:46.365Z,100812.16
2023-05-22T08:36:17.867Z,100803.47
2023-05-22T08:38:49.962Z,100794.00
2023-05-22T08:41:21.472Z,100790.63
2023-05-22T08:43:52.974Z,100781.75
2023-05-22T08:46:24.502Z,100788.75
2023-05-22T08:48:56.326Z,100792.09
2023-05-22T08:51:27.825Z,100791.00
2023-05-22T08:53:59.349Z,100774.09
2023-05-22T08:56:32.088Z,100791.47
2023-05-22T08:59:04.894Z,100766.75
2023-05-22T09:01:36.436Z,100744.00
2023-05-22T09:04:08.074Z,100741.00
2023-05-22T09:06:39.646Z,100721.41
2023-05-22T09:09:11.136Z,100702.84
2023-05-22T09:11:42.962Z,100711.53
2023-05-22T09:14:14.449Z,100705.78
2023-05-22T09:16:45.998Z,100713.63
2023-05-22T09:19:17.595Z,100724.78
2023-05-22T09:21:49.450Z,100716.63
2023-05-22T09:24:20.956Z,100715.00
2023-05-22T09:26:52.877Z,100697.09
2023-05-22T09:29:24.745Z,100689.09
2023-05-22T09:31:56.310Z,100678.13
2023-05-22T09:34:28.198Z,100693.34
2023-05-22T09:36:59.709Z,100694.88
2023-05-22T09:39:31.602Z,100689.41
2023-05-22T09:42:03.075Z,100700.84
2023-05-22T09:44:34.656Z,100703.22
2023-05-22T09:47:06.150Z,100685.16
2023-05-22T09:49:37.657Z,100694.47
2023-05-22T09:52:09.133Z,100686.59
2023-05-22T09:54:40.632Z,100686.16
2023-05-22T09:57:12.523Z,100672.06
2023-05-22T09:59:44.185Z,100667.16
2023-05-22T10:02:15.904Z,100652.13
2023-05-22T10:04:47.577Z,100635.28
2023-05-22T10:07:19.231Z,100645.84
2023-05-22T10:09:50.722Z,100643.25
2023-05-22T10:12:22.230Z,100652.28
2023-05-22T10:14:53.720Z,100652.22
2023-05-22T10:17:25.265Z,100665.38
2023-05-22T10:19:56.802Z,100646.44
2023-05-22T10:22:28.579Z,100639.00
2023-05-22T10:25:00.103Z,100561.41
2023-05-22T10:27:31.993Z,100628.63
2023-05-22T10:30:03.860Z,100618.41
2023-05-22T10:32:35.566Z,100613.09
2023-05-22T10:35:07.506Z,100604.09
2023-05-22T10:37:38.976Z,100585.66
2023-05-22T10:40:10.813Z,100575.16
2023-05-22T10:42:42.311Z,100572.88
2023-05-22T10:45:14.172Z,100567.72
2023-05-22T10:47:45.735Z,100569.00
2023-05-22T10:50:17.660Z,100580.56
2023-05-22T10:52:49.163Z,100577.28
2023-05-22T10:55:20.979Z,100565.94
2023-05-22T10:57:52.861Z,100543.47
2023-05-22T11:00:24.741Z,100573.69
2023-05-22T11:03:00.790Z,100556.66
2023-05-22T11:05:37.867Z,100525.69
2023-05-22T11:08:09.730Z,100529.06
2023-05-22T11:10:41.420Z,100521.44
2023-05-22T11:13:13.404Z,100543.63
2023-05-22T11:15:44.885Z,100538.38
2023-05-22T11:18:16.977Z,100539.81
2023-05-22T11:20:48.538Z,100565.78
2023-05-22T11:23:20.557Z,100548.72
2023-05-22T11:25:52.083Z,100560.75
2023-05-22T11:28:23.629Z,100555.19
2023-05-22T11:30:55.149Z,100553.94
2023-05-22T11:33:26.683Z,100546.38
2023-05-22T11:35:58.491Z,100543.72
2023-05-22T11:38:30.029Z,100546.13
2023-05-22T11:41:01.826Z,100541.19
2023-05-22T11:43:33.660Z,100547.41
2023-05-22T11:46:05.224Z,100546.47
2023-05-22T11:48:36.772Z,100543.28
2023-05-22T11:51:08.303Z,100560.34
2023-05-22T11:53:39.854Z,100539.00
2023-05-22T11:56:11.378Z,100530.38
2023-05-22T11:58:43.215Z,100536.72
2023-05-22T12:01:15.359Z,100536.41
2023-05-22T12:03:47.198Z,100539.22
2023-05-22T12:06:19.129Z,100509.22
2023-05-22T12:08:50.657Z,100504.53
2023-05-22T12:11:22.362Z,100491.94
2023-05-22T12:13:53.875Z,100477.03
2023-05-22T12:16:25.782Z,100481.38
2023-05-22T12:18:57.344Z,100458.94
2023-05-22T12:21:28.906Z,100437.84
2023-05-22T12:24:00.443Z,100420.63
2023-05-22T12:26:32.303Z,100418.88
2023-05-22T12:29:04.288Z,100439.72
2023-05-22T12:31:35.899Z,100440.19
2023-05-22T12:34:07.876Z,100446.66
2023-05-22T12:36:39.447Z,100456.22
2023-05-22T12:39:11.160Z,100447.84
2023-05-22T12:41:42.951Z,100468.28
2023-05-22T12:44:14.693Z,100446.16
2023-05-22T12:46:46.288Z,100431.09
2023-05-22T12:49:18.222Z,100405.38
2023-05-22T12:51:49.747Z,100381.00
2023-05-22T12:54:21.624Z,100371.44
2023-05-22T12:56:53.510Z,100365.34
2023-05-22T12:59:25.380Z,100358.00
2023-05-22T13:01:57.266Z,100353.19
2023-05-22T13:04:28.915Z,100343.81
2023-05-22T13:07:00.830Z,100332.78
2023-05-22T13:09:32.326Z,100334.19
2023-05-22T13:12:04.432Z,100337.47
2023-05-22T13:14:35.959Z,100344.63
2023-05-22T13:17:08.033Z,100316.72
2023-05-22T13:19:39.616Z,100321.38
2023-05-22T13:22:11.720Z,100311.41
2023-05-22T13:24:43.805Z,100315.56
2023-05-22T13:27:15.828Z,100312.97
2023-05-22T13:29:47.691Z,100310.63
2023-05-22T13:32:19.186Z,100284.22
2023-05-22T13:34:51.287Z,100295.31
2023-05-22T13:37:23.034Z,100286.22
2023-05-22T13:39:54.571Z,100276.44
2023-05-22T13:42:26.316Z,100282.97
2023-05-22T13:44:57.803Z,100267.28
2023-05-22T13:47:29.723Z,100253.63
2023-05-22T13:50:01.228Z,100247.94
2023-05-22T13:52:33.095Z,100251.00
2023-05-22T13:55:04.635Z,100263.56
2023-05-22T13:57:36.143Z,100281.25
2023-05-22T14:00:07.854Z,100278.72
2023-05-22T14:02:39.475Z,100263.44
2023-05-22T14:05:11.348Z,100262.84
2023-05-22T14:07:42.848Z,100288.13
2023-05-22T14:10:14.749Z,100288.38
2023-05-22T14:12:46.242Z,100276.47
2023-05-22T14:15:18.543Z,100291.97
2023-05-22T14:17:50.093Z,100261.16
2023-05-22T14:20:21.614Z,100260.13
2023-05-22T14:22:57.794Z,100226.88
2023-05-22T14:25:30.171Z,100258.94
2023-05-22T14:28:02.128Z,100258.00
2023-05-22T14:30:33.756Z,100245.13
2023-05-22T14:33:05.667Z,100222.84
2023-05-22T14:35:37.227Z,100215.28
2023-05-22T14:38:09.097Z,100215.09
2023-05-22T14:40:40.602Z,100217.69
2023-05-22T14:43:12.543Z,100214.41
2023-05-22T14:45:44.061Z,100192.00
2023-05-22T14:48:15.835Z,100177.38
2023-05-22T14:50:47.576Z,100176.25
2023-05-22T14:53:19.199Z,100188.81
2023-05-22T14:55:50.891Z,100195.97
2023-05-22T14:58:22.387Z,100201.47
2023-05-22T15:00:54.303Z,100174.59
2023-05-22T15:03:25.803Z,100187.41
2023-05-22T15:05:57.563Z,100185.81
2023-05-22T15:08:29.053Z,100188.22
2023-05-22T15:11:00.964Z,100174.81
2023-05-22T15:13:32.457Z,100185.38
2023-05-22T15:16:04.495Z,100185.81
2023-05-22T15:18:35.990Z,100181.19
2023-05-22T15:21:08.057Z,100173.44
2023-05-22T15:23:39.573Z,100177.31
2023-05-22T15:26:11.430Z,100170.97
2023-05-22T15:28:43.189Z,100187.03
2023-05-22T15:31:14.709Z,100182.72
2023-05-22T15:33:46.549Z,100178.97
2023-05-22T15:36:18.030Z,100180.03
2023-05-22T15:38:49.896Z,100175.22
2023-05-22T15:41:21.380Z,100171.66
2023-05-22T15:43:52.892Z,100173.63
2023-05-22T15:46:24.448Z,100161.88
2023-05-22T15:48:55.985Z,100160.19
2023-05-22T15:51:27.475Z,100152.25
2023-05-22T15:53:58.976Z,100152.56
2023-05-22T15:56:30.797Z,100172.59
2023-05-22T15:59:02.626Z,100164.88
2023-05-22T16:01:34.201Z,100184.31
2023-05-22T16:04:05.736Z,100189.09
2023-05-22T16:06:37.232Z,100205.22
2023-05-22T16:09:08.721Z,100208.84
2023-05-22T16:11:40.229Z,100212.75
2023-05-22T16:14:11.726Z,100203.19
2023-05-22T16:16:43.625Z,100205.94
2023-05-22T16:19:15.217Z,100219.00
2023-05-22T16:21:46.831Z,100222.75
2023-05-22T16:24:18.855Z,100238.53
2023-05-22T16:26:50.662Z,100226.50
2023-05-22T16:29:22.432Z,100217.31
2023-05-22T16:31:54.037Z,100225.25
2023-05-22T16:34:25.758Z,100228.38
2023-05-22T16:36:57.258Z,100228.25
2023-05-22T16:39:29.128Z,100279.78
2023-05-22T16:42:00.613Z,100290.94
2023-05-22T16:44:32.449Z,100276.19
2023-05-22T16:47:04.047Z,100289.69
2023-05-22T16:49:35.654Z,100277.25
2023-05-22T16:52:07.554Z,100275.19
2023-05-22T16:54:39.090Z,100279.41
2023-05-22T16:57:10.895Z,100279.53
2023-05-22T16:59:42.387Z,100271.66
2023-05-22T17:02:14.025Z,100265.16
2023-05-22T17:04:45.507Z,100268.81
2023-05-22T17:07:17.553Z,100280.19
2023-05-22T17:09:49.073Z,100275.63
2023-05-22T17:12:20.762Z,100273.44
2023-05-22T17:14:52.264Z,100283.69
2023-05-22T17:17:25.972Z,100295.13
2023-05-22T17:19:57.482Z,100287.13
2023-05-22T17:22:29.447Z,100289.66
2023-05-22T17:25:01.257Z,100288.69
2023-05-22T17:27:36.102Z,100295.66
2023-05-22T17:30:08.715Z,100293.78
2023-05-22T17:32:40.322Z,100309.16
2023-05-22T17:35:12.265Z,100310.63
2023-05-22T17:37:43.768Z,100318.34
2023-05-22T17:40:15.536Z,100315.59
2023-05-22T17:42:47.031Z,100313.97
2023-05-22T17:45:18.762Z,100319.03
2023-05-22T17:47:50.464Z,100321.03
2023-05-22T17:50:21.981Z,100322.44
2023-05-22T17:52:53.727Z,100330.41
2023-05-22T17:55:25.224Z,100334.47
2023-05-22T17:57:57.297Z,100328.63
2023-05-22T18:00:28.819Z,100338.31
2023-05-22T18:03:00.671Z,100335.28
2023-05-22T18:05:32.353Z,100342.19
2023-05-22T18:08:04.210Z,100345.88
2023-05-22T18:10:35.681Z,100340.00
2023-05-22T18:13:07.571Z,100343.53
2023-05-22T18:15:39.131Z,100347.06
2023-05-22T18:18:12.974Z,100349.47
2023-05-22T18:20:44.945Z,100348.19
2023-05-22T18:23:16.481Z,100356.72
2023-05-22T18:25:47.999Z,100366.34
2023-05-22T18:28:19.525Z,100372.59
2023-05-22T18:30:51.049Z,100377.06
2023-05-22T18:33:22.541Z,100383.97
2023-05-22T18:35:54.250Z,100386.50
2023-05-22T18:38:25.763Z,100394.63
2023-05-22T18:40:57.468Z,100402.81
2023-05-22T18:43:28.949Z,100408.06
2023-05-22T18:46:00.464Z,100411.19
2023-05-22T18:48:31.944Z,100414.22
2023-05-22T18:51:03.872Z,100425.63
2023-05-22T18:53:35.364Z,100432.59
2023-05-22T18:56:07.495Z,100428.25
2023-05-22T18:58:38.996Z,100444.19
2023-05-22T19:01:10.496Z,100453.88
2023-05-22T19:03:42.153Z,100448.16
2023-05-22T19:06:13.643Z,100456.88
2023-05-22T19:08:45.517Z,100450.53
2023-05-22T19:11:17.004Z,100458.50
2023-05-22T19:13:49.103Z,100469.28
2023-05-22T19:16:20.638Z,100478.16
2023-05-22T19:18:52.405Z,100475.34
2023-05-22T19:21:23.906Z,100486.63
2023-05-22T19:23:55.921Z,100493.78
2023-05-22T19:26:27.540Z,100486.03
2023-05-22T19:28:59.023Z,100497.00
2023-05-22T19:31:30.935Z,100509.66
2023-05-22T19:34:02.479Z,100507.75
2023-05-22T19:36:33.975Z,100509.78
2023-05-22T19:39:05.502Z,100516.38
2023-05-22T19:41:37.015Z,100515.97
2023-05-22T19:44:08.516Z,100526.31
2023-05-22T19:46:40.054Z,100534.25
2023-05-22T19:49:11.592Z,100487.88
2023-05-22T19:51:43.450Z,100535.31
2023-05-22T19:54:15.311Z,100541.06
2023-05-22T19:56:46.957Z,100542.25
2023-05-22T19:59:18.824Z,100544.84
2023-05-22T20:01:52.837Z,100549.22
2023-05-22T20:04:25.452Z,100553.13
2023-05-22T20:06:56.946Z,100560.25
2023-05-22T20:09:28.634Z,100564.66
2023-05-22T20:12:00.149Z,100563.13
2023-05-22T20:14:31.971Z,100564.31
2023-05-22T20:17:03.468Z,100573.59
2023-05-22T20:19:35.076Z,100577.69
2023-05-22T20:22:07.014Z,100585.66
2023-05-22T20:24:38.591Z,100588.97
2023-05-22T20:27:10.416Z,100599.06
2023-05-22T20:29:41.936Z,100597.25
2023-05-22T20:32:13.961Z,100600.03
2023-05-22T20:34:45.549Z,100605.00
2023-05-22T20:37:17.489Z,100601.00
2023-05-22T20:39:48.985Z,100604.00
2023-05-22T20:42:20.797Z,100611.09
2023-05-22T20:44:52.352Z,100612.56
2023-05-22T20:47:23.849Z,100610.19
2023-05-22T20:49:55.365Z,100617.28
2023-05-22T20:52:27.293Z,100610.53
2023-05-22T20:54:59.151Z,100618.75
2023-05-22T20:57:30.664Z,100626.09
2023-05-22T21:00:02.357Z,100623.00
2023-05-22T21:02:33.928Z,100618.94
2023-05-22T21:05:05.461Z,100624.94
2023-05-22T21:07:36.960Z,100633.88
2023-05-22T21:10:08.508Z,100631.22
2023-05-22T21:12:40.012Z,100638.28
2023-05-22T21:15:11.860Z,100638.56
2023-05-22T21:17:43.392Z,100645.63
2023-05-22T21:20:15.461Z,100652.94
2023-05-22T21:22:46.994Z,100649.72
2023-05-22T21:25:18.549Z,100652.41
2023-05-22T21:27:50.357Z,100651.88
2023-05-22T21:30:21.846Z,100645.94
2023-05-22T21:32:53.700Z,100657.91
2023-05-22T21:35:25.228Z,100656.31
2023-05-22T21:37:57.132Z,100660.13
2023-05-22T21:40:28.637Z,100652.84
2023-05-22T21:43:00.509Z,100658.28
2023-05-22T21:45:32.006Z,100658.00
2023-05-22T21:48:03.725Z,100659.94
2023-05-22T21:50:35.328Z,100658.09
2023-05-22T21:53:07.094Z,100654.31
2023-05-22T21:55:38.726Z,100659.19
2023-05-22T21:58:10.692Z,100651.09
2023-05-22T22:00:42.546Z,100648.69
2023-05-22T22:03:14.100Z,100652.25
2023-05-22T22:05:46.212Z,100657.09
2023-05-22T22:08:17.699Z,100659.78
2023-05-22T22:10:49.861Z,100662.25
2023-05-22T22:13:21.356Z,100659.53
2023-05-22T22:15:53.117Z,100654.41
2023-05-22T22:18:24.614Z,100653.91
2023-05-22T22:20:56.310Z,100651.72
2023-05-22T22:23:28.025Z,100658.47
2023-05-22T22:25:59.812Z,100652.28
2023-05-22T22:28:31.700Z,100645.00
2023-05-22T22:31:03.203Z,100645.53
2023-05-22T22:33:34.708Z,100648.53
2023-05-22T22:36:06.209Z,100637.72
2023-05-22T22:38:37.700Z,100638.78
2023-05-22T22:41:09.212Z,100641.50
2023-05-22T22:43:40.758Z,100638.56
2023-05-22T22:46:12.302Z,100629.06
2023-05-22T22:48:44.149Z,100631.53
2023-05-22T22:51:15.642Z,100637.75
2023-05-22T22:53:47.185Z,100639.38
2023-05-22T22:56:19.055Z,100642.34
2023-05-22T22:58:50.901Z,100628.03
2023-05-22T23:01:22.745Z,100635.59
2023-05-22T23:03:54.264Z,100625.88
2023-05-22T23:06:26.075Z,100625.91
2023-05-22T23:08:57.568Z,100624.84
2023-05-22T23:11:29.217Z,100624.84
2023-05-22T23:14:00.721Z,100620.56
2023-05-22T23:16:32.582Z,100617.88
2023-05-22T23:19:04.163Z,100609.78
2023-05-22T23:21:35.722Z,100610.34
2023-05-22T23:24:07.530Z,100619.03
2023-05-22T23:26:39.052Z,100621.72
2023-05-22T23:29:10.854Z,100617.69
2023-05-22T23:31:42.424Z,100628.22
2023-05-22T23:34:14.334Z,100618.81
2023-05-22T23:36:45.849Z,100607.47
2023-05-22T23:39:17.582Z,100604.28
2023-05-22T23:41:49.090Z,100601.56
2023-05-22T23:44:20.903Z,100593.75
2023-05-22T23:46:52.417Z,100588.88
2023-05-22T23:49:24.204Z,100594.84
2023-05-22T23:51:55.682Z,100603.50
2023-05-22T23:54:27.465Z,100610.50
2023-05-22T23:56:58.946Z,100605.38
2023-05-22T23:59:30.775Z,100608.59
